バマコ の空港の天気 - METARとTAF

バマコ・セヌー国際空港 ( GABS / BKO ) - マリ バマコ
飛行場実況気象(Metar)
観測時間12/14 06:00 GMT (12/14 06:00 UTC)
風向・風速東北東 5m/s
視程10km以上
天気現象
なし
気温22℃
湿度27%
気圧1018hPa
METARGABS 140600Z 06009KT CAVOK 22/02 Q1018 NOSIG
過去の天気等 Google飛行場航空写真 Wunderground天気予報

過去48時間のMETAR

飛行場予報(TAF)
発表時間: 12/14 05:00 GMT (12/14 05:00 UTC)
予報対象時間: 14日6時 GMT ~ 15日12時 GMT
風向・風速北東 6m/s
視程10km以上
なし
TAF GABS 140500Z 1406/1512 05012KT CAVOK